Main page
METAR-TAF:

METAR-TAF

Airports :

Afyon Airport

Afyonkarahisar, Turkey

latitude: 38-45N, longitude: 030-32E, elevation: 1034 m

METAR: missing

Time: 03:27 (00:27 UTC)

Forecast

The report was made 10 hours and 47 minutes ago, at 13:40 UTC
Forecast valid from 21 at 15 UTC to 21 at 24 UTC
Wind 8 kt from the Northwest
Visibility 10 km or more
Scattered clouds at a height of 3000 ft

TAF: LTAH 211340Z 2115/2124 31008KT 9999 SCT030

Weather observations and forecasts of more than 4000 airports (METAR and TAF reports).

The available stations are represented by yellow and red dots on the map.

Hover mouse over dot to see the name of the station.

Then click to see weather observations and forecasts.

To change the map : click on the green buttons with a black cross to zoom in, on the green button with a dash to zoom out, or on the green arrows for adjacent maps.


METAR-TAF: